Terminal Aerodrome Forecast
Issued by NWS

Home | Current Version | Previous Version | Text Only | Print | Product List | Glossary On
Versions: 1 2 3 4 5 6 7 8 9 10 11 12 13 14 15 16 17 18 19 20 21 22 23 24 25 26 27 28 29 30 31 32 33 34 35 36 37 38 39 40 41 42 43 44 45 46
000
FTUS44 KHGX 201137
TAFCXO
TAF
KCXO 201137Z 2012/2112 02006KT P6SM OVC008
     FM201500 36006KT P6SM BKN012 OVC025
     FM202100 02005KT P6SM FEW015 SCT025
     FM210700 VRB03KT P6SM FEW035 SCT080 SCT250=

USA.gov is the U.S. government's official web portal to all federal, state and local government web resources and services.